sensor_id;sensor_type;location;lat;lon;timestamp;temperature;humidity
65040;HTU21D;51606;45.000;38.612;2023-07-20T00:00:28;17.38;74.54
65040;HTU21D;51606;45.000;38.612;2023-07-20T00:03:11;17.36;74.69
65040;HTU21D;51606;45.000;38.612;2023-07-20T00:05:46;17.30;74.63
65040;HTU21D;51606;45.000;38.612;2023-07-20T00:08:12;17.23;74.60
65040;HTU21D;51606;45.000;38.612;2023-07-20T00:10:40;17.20;74.69
65040;HTU21D;51606;45.000;38.612;2023-07-20T00:13:07;17.16;74.65
65040;HTU21D;51606;45.000;38.612;2023-07-20T00:15:34;17.14;74.64
65040;HTU21D;51606;45.000;38.612;2023-07-20T00:18:04;17.10;74.67
65040;HTU21D;51606;45.000;38.612;2023-07-20T00:20:36;17.09;74.73
65040;HTU21D;51606;45.000;38.612;2023-07-20T00:26:37;16.98;74.56
65040;HTU21D;51606;45.000;38.612;2023-07-20T00:29:03;16.89;74.66
65040;HTU21D;51606;45.000;38.612;2023-07-20T00:31:30;16.79;74.89
65040;HTU21D;51606;45.000;38.612;2023-07-20T00:33:56;16.72;75.01
65040;HTU21D;51606;45.000;38.612;2023-07-20T00:43:26;16.47;75.07
65040;HTU21D;51606;45.000;38.612;2023-07-20T00:45:55;16.46;75.05
65040;HTU21D;51606;45.000;38.612;2023-07-20T00:48:32;16.47;74.94
65040;HTU21D;51606;45.000;38.612;2023-07-20T00:51:00;16.47;74.94
65040;HTU21D;51606;45.000;38.612;2023-07-20T00:53:28;16.48;74.86
65040;HTU21D;51606;45.000;38.612;2023-07-20T00:55:55;16.46;74.87
65040;HTU21D;51606;45.000;38.612;2023-07-20T00:58:24;16.48;74.94
65040;HTU21D;51606;45.000;38.612;2023-07-20T01:01:01;16.51;74.77
65040;HTU21D;51606;45.000;38.612;2023-07-20T01:03:27;16.54;74.69
65040;HTU21D;51606;45.000;38.612;2023-07-20T01:14:02;16.60;74.54
65040;HTU21D;51606;45.000;38.612;2023-07-20T01:16:29;16.56;74.64
65040;HTU21D;51606;45.000;38.612;2023-07-20T01:18:55;16.54;74.70
65040;HTU21D;51606;45.000;38.612;2023-07-20T01:21:30;16.51;74.85
65040;HTU21D;51606;45.000;38.612;2023-07-20T01:27:10;16.46;74.88
65040;HTU21D;51606;45.000;38.612;2023-07-20T01:30:08;16.42;74.93
65040;HTU21D;51606;45.000;38.612;2023-07-20T01:32:40;16.37;74.89
65040;HTU21D;51606;45.000;38.612;2023-07-20T01:35:10;16.34;74.95
65040;HTU21D;51606;45.000;38.612;2023-07-20T01:37:43;16.30;75.03
65040;HTU21D;51606;45.000;38.612;2023-07-20T01:40:11;16.29;75.02
65040;HTU21D;51606;45.000;38.612;2023-07-20T01:42:44;16.29;75.10
65040;HTU21D;51606;45.000;38.612;2023-07-20T01:45:11;16.26;75.01
65040;HTU21D;51606;45.000;38.612;2023-07-20T01:47:38;16.24;75.03
65040;HTU21D;51606;45.000;38.612;2023-07-20T01:50:05;16.20;75.08
65040;HTU21D;51606;45.000;38.612;2023-07-20T01:52:32;16.17;75.12
65040;HTU21D;51606;45.000;38.612;2023-07-20T01:54:59;16.15;75.17
65040;HTU21D;51606;45.000;38.612;2023-07-20T01:57:25;16.12;75.23
65040;HTU21D;51606;45.000;38.612;2023-07-20T01:59:52;16.07;75.31
65040;HTU21D;51606;45.000;38.612;2023-07-20T02:02:18;16.04;75.37
65040;HTU21D;51606;45.000;38.612;2023-07-20T02:04:47;16.02;75.37
65040;HTU21D;51606;45.000;38.612;2023-07-20T02:07:13;16.01;75.39
65040;HTU21D;51606;45.000;38.612;2023-07-20T02:09:40;16.02;75.31
65040;HTU21D;51606;45.000;38.612;2023-07-20T02:12:07;16.04;75.34
65040;HTU21D;51606;45.000;38.612;2023-07-20T02:14:34;16.05;75.29
65040;HTU21D;51606;45.000;38.612;2023-07-20T02:17:01;16.08;75.24
65040;HTU21D;51606;45.000;38.612;2023-07-20T02:19:29;16.12;75.16
65040;HTU21D;51606;45.000;38.612;2023-07-20T02:21:56;16.16;75.05
65040;HTU21D;51606;45.000;38.612;2023-07-20T02:24:24;16.20;74.99
65040;HTU21D;51606;45.000;38.612;2023-07-20T02:26:51;16.21;74.99
65040;HTU21D;51606;45.000;38.612;2023-07-20T02:29:18;16.24;74.99
65040;HTU21D;51606;45.000;38.612;2023-07-20T02:31:44;16.27;74.97
65040;HTU21D;51606;45.000;38.612;2023-07-20T02:34:11;16.27;74.99
65040;HTU21D;51606;45.000;38.612;2023-07-20T02:36:37;16.28;75.05
65040;HTU21D;51606;45.000;38.612;2023-07-20T02:39:04;16.30;75.06
65040;HTU21D;51606;45.000;38.612;2023-07-20T02:41:33;16.37;74.99
65040;HTU21D;51606;45.000;38.612;2023-07-20T02:55:08;16.89;74.03
65040;HTU21D;51606;45.000;38.612;2023-07-20T02:57:35;17.01;74.01
65040;HTU21D;51606;45.000;38.612;2023-07-20T03:00:03;17.13;73.90
65040;HTU21D;51606;45.000;38.612;2023-07-20T03:02:31;17.25;73.80
65040;HTU21D;51606;45.000;38.612;2023-07-20T03:04:58;17.39;73.64
65040;HTU21D;51606;45.000;38.612;2023-07-20T03:07:28;17.53;73.57
65040;HTU21D;51606;45.000;38.612;2023-07-20T03:09:55;17.64;73.51
65040;HTU21D;51606;45.000;38.612;2023-07-20T03:12:22;17.80;73.47
65040;HTU21D;51606;45.000;38.612;2023-07-20T03:14:50;17.96;73.30
65040;HTU21D;51606;45.000;38.612;2023-07-20T03:17:17;18.19;73.18
65040;HTU21D;51606;45.000;38.612;2023-07-20T03:19:44;18.53;72.79
65040;HTU21D;51606;45.000;38.612;2023-07-20T03:22:11;18.79;72.50
65040;HTU21D;51606;45.000;38.612;2023-07-20T03:24:38;18.98;72.41
65040;HTU21D;51606;45.000;38.612;2023-07-20T03:27:04;19.26;72.30
65040;HTU21D;51606;45.000;38.612;2023-07-20T03:29:32;19.59;72.03
65040;HTU21D;51606;45.000;38.612;2023-07-20T03:31:59;19.91;71.64
65040;HTU21D;51606;45.000;38.612;2023-07-20T03:34:25;20.19;71.46
65040;HTU21D;51606;45.000;38.612;2023-07-20T03:36:52;20.44;71.29
65040;HTU21D;51606;45.000;38.612;2023-07-20T03:39:18;20.56;71.36
65040;HTU21D;51606;45.000;38.612;2023-07-20T03:41:45;20.73;71.41
65040;HTU21D;51606;45.000;38.612;2023-07-20T03:44:12;20.96;71.35
65040;HTU21D;51606;45.000;38.612;2023-07-20T03:46:38;21.42;70.98
65040;HTU21D;51606;45.000;38.612;2023-07-20T03:49:05;22.04;70.26
65040;HTU21D;51606;45.000;38.612;2023-07-20T03:51:32;22.96;69.22
65040;HTU21D;51606;45.000;38.612;2023-07-20T03:53:58;23.88;68.41
65040;HTU21D;51606;45.000;38.612;2023-07-20T03:56:25;25.06;67.09
65040;HTU21D;51606;45.000;38.612;2023-07-20T03:58:53;26.16;65.95
65040;HTU21D;51606;45.000;38.612;2023-07-20T04:01:19;27.22;64.97
65040;HTU21D;51606;45.000;38.612;2023-07-20T04:03:45;28.26;63.96
65040;HTU21D;51606;45.000;38.612;2023-07-20T04:06:13;29.24;62.98
65040;HTU21D;51606;45.000;38.612;2023-07-20T04:08:40;30.05;62.27
65040;HTU21D;51606;45.000;38.612;2023-07-20T04:11:07;30.75;61.55
65040;HTU21D;51606;45.000;38.612;2023-07-20T04:13:33;31.23;61.22
65040;HTU21D;51606;45.000;38.612;2023-07-20T04:16:00;31.80;60.58
65040;HTU21D;51606;45.000;38.612;2023-07-20T04:18:27;31.98;60.44
65040;HTU21D;51606;45.000;38.612;2023-07-20T04:20:53;32.38;60.06
65040;HTU21D;51606;45.000;38.612;2023-07-20T04:23:19;32.54;59.64
65040;HTU21D;51606;45.000;38.612;2023-07-20T04:25:46;32.48;59.76
65040;HTU21D;51606;45.000;38.612;2023-07-20T04:28:13;32.55;59.86
65040;HTU21D;51606;45.000;38.612;2023-07-20T04:30:48;33.37;58.51
65040;HTU21D;51606;45.000;38.612;2023-07-20T04:33:16;33.92;57.61
65040;HTU21D;51606;45.000;38.612;2023-07-20T04:35:50;34.56;56.42
65040;HTU21D;51606;45.000;38.612;2023-07-20T04:38:26;35.13;55.87
65040;HTU21D;51606;45.000;38.612;2023-07-20T04:41:13;35.73;55.03
65040;HTU21D;51606;45.000;38.612;2023-07-20T04:43:44;35.90;54.75
65040;HTU21D;51606;45.000;38.612;2023-07-20T04:46:12;35.26;55.49
65040;HTU21D;51606;45.000;38.612;2023-07-20T04:48:40;35.28;55.59
65040;HTU21D;51606;45.000;38.612;2023-07-20T04:51:06;35.98;54.13
65040;HTU21D;51606;45.000;38.612;2023-07-20T04:53:33;36.56;53.24
65040;HTU21D;51606;45.000;38.612;2023-07-20T04:56:00;37.01;52.48
65040;HTU21D;51606;45.000;38.612;2023-07-20T04:58:27;37.26;52.22
65040;HTU21D;51606;45.000;38.612;2023-07-20T05:00:54;37.62;51.54
65040;HTU21D;51606;45.000;38.612;2023-07-20T05:03:21;37.94;51.06
65040;HTU21D;51606;45.000;38.612;2023-07-20T05:05:48;38.29;50.44
65040;HTU21D;51606;45.000;38.612;2023-07-20T05:08:15;38.55;50.06
65040;HTU21D;51606;45.000;38.612;2023-07-20T05:10:43;38.89;49.41
65040;HTU21D;51606;45.000;38.612;2023-07-20T05:13:09;39.23;48.80
65040;HTU21D;51606;45.000;38.612;2023-07-20T05:15:36;39.50;48.40
65040;HTU21D;51606;45.000;38.612;2023-07-20T05:18:04;39.87;47.70
65040;HTU21D;51606;45.000;38.612;2023-07-20T05:20:30;40.11;47.25
65040;HTU21D;51606;45.000;38.612;2023-07-20T05:22:58;40.22;46.70
65040;HTU21D;51606;45.000;38.612;2023-07-20T05:25:24;39.76;47.03
65040;HTU21D;51606;45.000;38.612;2023-07-20T05:27:52;39.43;47.18
65040;HTU21D;51606;45.000;38.612;2023-07-20T05:30:18;39.06;47.55
65040;HTU21D;51606;45.000;38.612;2023-07-20T05:32:45;39.41;46.89
65040;HTU21D;51606;45.000;38.612;2023-07-20T05:35:13;39.76;46.10
65040;HTU21D;51606;45.000;38.612;2023-07-20T05:37:41;40.01;45.55
65040;HTU21D;51606;45.000;38.612;2023-07-20T05:40:07;39.92;45.43
65040;HTU21D;51606;45.000;38.612;2023-07-20T05:42:34;40.01;45.20
65040;HTU21D;51606;45.000;38.612;2023-07-20T05:45:01;40.19;44.76
65040;HTU21D;51606;45.000;38.612;2023-07-20T05:47:27;40.41;44.31
65040;HTU21D;51606;45.000;38.612;2023-07-20T05:49:53;40.58;43.95
65040;HTU21D;51606;45.000;38.612;2023-07-20T05:52:20;40.83;43.39
65040;HTU21D;51606;45.000;38.612;2023-07-20T05:54:46;40.84;43.17
65040;HTU21D;51606;45.000;38.612;2023-07-20T05:57:13;40.68;43.17
65040;HTU21D;51606;45.000;38.612;2023-07-20T05:59:39;40.62;43.08
65040;HTU21D;51606;45.000;38.612;2023-07-20T06:02:10;40.37;43.02
65040;HTU21D;51606;45.000;38.612;2023-07-20T06:04:37;40.31;42.74
65040;HTU21D;51606;45.000;38.612;2023-07-20T06:07:03;40.07;42.55
65040;HTU21D;51606;45.000;38.612;2023-07-20T06:09:30;40.08;42.19
65040;HTU21D;51606;45.000;38.612;2023-07-20T06:11:57;40.09;41.90
65040;HTU21D;51606;45.000;38.612;2023-07-20T06:14:26;39.89;41.43
65040;HTU21D;51606;45.000;38.612;2023-07-20T06:16:53;39.76;41.60
65040;HTU21D;51606;45.000;38.612;2023-07-20T06:19:19;39.56;41.42
65040;HTU21D;51606;45.000;38.612;2023-07-20T06:21:46;39.40;41.33
65040;HTU21D;51606;45.000;38.612;2023-07-20T06:34:56;39.24;40.75
65040;HTU21D;51606;45.000;38.612;2023-07-20T06:37:22;39.00;40.51
65040;HTU21D;51606;45.000;38.612;2023-07-20T06:39:48;38.55;40.62
65040;HTU21D;51606;45.000;38.612;2023-07-20T06:42:15;38.34;40.54
65040;HTU21D;51606;45.000;38.612;2023-07-20T06:44:41;38.45;40.21
65040;HTU21D;51606;45.000;38.612;2023-07-20T06:47:08;38.34;39.94
65040;HTU21D;51606;45.000;38.612;2023-07-20T06:49:34;38.11;39.93
65040;HTU21D;51606;45.000;38.612;2023-07-20T06:52:00;37.66;40.24
65040;HTU21D;51606;45.000;38.612;2023-07-20T06:54:27;37.32;40.54
65040;HTU21D;51606;45.000;38.612;2023-07-20T06:56:53;36.75;41.04
65040;HTU21D;51606;45.000;38.612;2023-07-20T06:59:20;36.41;41.45
65040;HTU21D;51606;45.000;38.612;2023-07-20T07:01:47;36.30;41.19
65040;HTU21D;51606;45.000;38.612;2023-07-20T07:04:13;35.96;41.65
65040;HTU21D;51606;45.000;38.612;2023-07-20T07:06:40;35.75;41.42
65040;HTU21D;51606;45.000;38.612;2023-07-20T07:09:07;35.10;42.13
65040;HTU21D;51606;45.000;38.612;2023-07-20T07:11:34;35.22;41.97
65040;HTU21D;51606;45.000;38.612;2023-07-20T07:14:00;34.99;41.78
65040;HTU21D;51606;45.000;38.612;2023-07-20T07:16:27;34.53;42.51
65040;HTU21D;51606;45.000;38.612;2023-07-20T07:18:53;34.41;42.68
65040;HTU21D;51606;45.000;38.612;2023-07-20T07:21:20;34.31;42.77
65040;HTU21D;51606;45.000;38.612;2023-07-20T07:23:47;34.16;42.65
65040;HTU21D;51606;45.000;38.612;2023-07-20T07:26:13;34.08;42.91
65040;HTU21D;51606;45.000;38.612;2023-07-20T07:28:40;34.25;42.64
65040;HTU21D;51606;45.000;38.612;2023-07-20T07:31:07;34.32;42.47
65040;HTU21D;51606;45.000;38.612;2023-07-20T07:33:33;34.32;42.36
65040;HTU21D;51606;45.000;38.612;2023-07-20T07:36:01;34.30;42.51
65040;HTU21D;51606;45.000;38.612;2023-07-20T07:38:27;34.16;42.59
65040;HTU21D;51606;45.000;38.612;2023-07-20T07:40:54;34.22;42.57
65040;HTU21D;51606;45.000;38.612;2023-07-20T07:43:21;34.40;42.33
65040;HTU21D;51606;45.000;38.612;2023-07-20T07:45:47;34.52;41.99
65040;HTU21D;51606;45.000;38.612;2023-07-20T07:48:14;34.39;42.11
65040;HTU21D;51606;45.000;38.612;2023-07-20T07:50:40;34.32;42.27
65040;HTU21D;51606;45.000;38.612;2023-07-20T07:53:08;34.12;42.04
65040;HTU21D;51606;45.000;38.612;2023-07-20T07:55:35;33.95;42.39
65040;HTU21D;51606;45.000;38.612;2023-07-20T07:58:02;34.18;42.12
65040;HTU21D;51606;45.000;38.612;2023-07-20T08:00:29;34.44;41.73
65040;HTU21D;51606;45.000;38.612;2023-07-20T08:02:55;34.46;41.49
65040;HTU21D;51606;45.000;38.612;2023-07-20T08:05:22;34.40;41.55
65040;HTU21D;51606;45.000;38.612;2023-07-20T08:07:48;34.34;41.69
65040;HTU21D;51606;45.000;38.612;2023-07-20T08:10:15;34.50;41.47
65040;HTU21D;51606;45.000;38.612;2023-07-20T08:12:41;34.61;41.30
65040;HTU21D;51606;45.000;38.612;2023-07-20T08:15:10;34.48;41.30
65040;HTU21D;51606;45.000;38.612;2023-07-20T08:17:37;34.54;41.10
65040;HTU21D;51606;45.000;38.612;2023-07-20T08:20:03;34.63;40.87
65040;HTU21D;51606;45.000;38.612;2023-07-20T08:22:30;34.63;40.59
65040;HTU21D;51606;45.000;38.612;2023-07-20T08:24:56;34.66;40.08
65040;HTU21D;51606;45.000;38.612;2023-07-20T08:27:23;34.56;40.12
65040;HTU21D;51606;45.000;38.612;2023-07-20T08:29:49;34.44;40.13
65040;HTU21D;51606;45.000;38.612;2023-07-20T08:32:16;34.32;40.01
65040;HTU21D;51606;45.000;38.612;2023-07-20T08:34:42;34.09;40.00
65040;HTU21D;51606;45.000;38.612;2023-07-20T08:37:09;33.92;40.03
65040;HTU21D;51606;45.000;38.612;2023-07-20T08:39:36;33.92;39.75
65040;HTU21D;51606;45.000;38.612;2023-07-20T08:42:03;33.86;39.52
65040;HTU21D;51606;45.000;38.612;2023-07-20T08:44:35;33.73;39.54
65040;HTU21D;51606;45.000;38.612;2023-07-20T08:47:02;33.75;39.29
65040;HTU21D;51606;45.000;38.612;2023-07-20T08:49:33;33.91;38.91
65040;HTU21D;51606;45.000;38.612;2023-07-20T08:52:00;33.93;38.90
65040;HTU21D;51606;45.000;38.612;2023-07-20T08:54:30;33.95;38.83
65040;HTU21D;51606;45.000;38.612;2023-07-20T08:57:04;33.83;38.86
65040;HTU21D;51606;45.000;38.612;2023-07-20T08:59:32;33.65;38.91
65040;HTU21D;51606;45.000;38.612;2023-07-20T09:01:59;33.37;39.35
65040;HTU21D;51606;45.000;38.612;2023-07-20T09:04:26;33.45;39.46
65040;HTU21D;51606;45.000;38.612;2023-07-20T09:06:53;33.49;39.20
65040;HTU21D;51606;45.000;38.612;2023-07-20T09:09:19;33.32;39.23
65040;HTU21D;51606;45.000;38.612;2023-07-20T09:11:47;32.94;39.53
65040;HTU21D;51606;45.000;38.612;2023-07-20T09:14:14;32.85;39.85
65040;HTU21D;51606;45.000;38.612;2023-07-20T09:16:48;32.79;39.82
65040;HTU21D;51606;45.000;38.612;2023-07-20T09:19:16;32.67;40.04
65040;HTU21D;51606;45.000;38.612;2023-07-20T09:21:49;32.73;39.97
65040;HTU21D;51606;45.000;38.612;2023-07-20T09:24:18;32.73;39.97
65040;HTU21D;51606;45.000;38.612;2023-07-20T09:26:46;32.69;40.09
65040;HTU21D;51606;45.000;38.612;2023-07-20T09:29:20;32.77;40.11
65040;HTU21D;51606;45.000;38.612;2023-07-20T09:32:02;32.72;40.00
65040;HTU21D;51606;45.000;38.612;2023-07-20T09:34:30;32.55;40.24
65040;HTU21D;51606;45.000;38.612;2023-07-20T09:37:00;32.48;40.30
65040;HTU21D;51606;45.000;38.612;2023-07-20T09:39:27;32.27;40.26
65040;HTU21D;51606;45.000;38.612;2023-07-20T09:41:53;32.15;40.49
65040;HTU21D;51606;45.000;38.612;2023-07-20T09:44:20;32.23;40.51
65040;HTU21D;51606;45.000;38.612;2023-07-20T09:46:48;32.27;40.32
65040;HTU21D;51606;45.000;38.612;2023-07-20T09:49:14;32.17;40.20
65040;HTU21D;51606;45.000;38.612;2023-07-20T09:51:44;32.05;40.47
65040;HTU21D;51606;45.000;38.612;2023-07-20T09:54:13;32.10;40.33
65040;HTU21D;51606;45.000;38.612;2023-07-20T09:56:40;31.99;40.14
65040;HTU21D;51606;45.000;38.612;2023-07-20T09:59:08;31.96;40.04
65040;HTU21D;51606;45.000;38.612;2023-07-20T10:01:35;31.87;40.08
65040;HTU21D;51606;45.000;38.612;2023-07-20T10:15:33;31.97;40.10
65040;HTU21D;51606;45.000;38.612;2023-07-20T10:20:32;32.01;39.85
65040;HTU21D;51606;45.000;38.612;2023-07-20T10:23:00;32.00;39.84
65040;HTU21D;51606;45.000;38.612;2023-07-20T10:25:27;32.09;39.72
65040;HTU21D;51606;45.000;38.612;2023-07-20T10:27:55;32.19;39.68
65040;HTU21D;51606;45.000;38.612;2023-07-20T10:30:23;32.17;39.40
65040;HTU21D;51606;45.000;38.612;2023-07-20T10:32:51;32.19;39.46
65040;HTU21D;51606;45.000;38.612;2023-07-20T10:35:18;32.20;39.40
65040;HTU21D;51606;45.000;38.612;2023-07-20T10:37:51;32.27;39.30
65040;HTU21D;51606;45.000;38.612;2023-07-20T10:40:55;32.37;39.39
65040;HTU21D;51606;45.000;38.612;2023-07-20T10:43:22;32.49;39.22
65040;HTU21D;51606;45.000;38.612;2023-07-20T10:45:52;32.44;39.16
65040;HTU21D;51606;45.000;38.612;2023-07-20T10:50:46;31.87;39.14
65040;HTU21D;51606;45.000;38.612;2023-07-20T10:53:32;31.63;39.53
65040;HTU21D;51606;45.000;38.612;2023-07-20T10:56:21;31.70;39.46
65040;HTU21D;51606;45.000;38.612;2023-07-20T10:58:47;31.86;39.28
65040;HTU21D;51606;45.000;38.612;2023-07-20T11:01:17;31.98;39.21
65040;HTU21D;51606;45.000;38.612;2023-07-20T11:03:49;31.97;38.94
65040;HTU21D;51606;45.000;38.612;2023-07-20T11:11:46;31.99;39.01
65040;HTU21D;51606;45.000;38.612;2023-07-20T11:14:24;31.95;39.05
65040;HTU21D;51606;45.000;38.612;2023-07-20T11:16:52;31.99;39.04
65040;HTU21D;51606;45.000;38.612;2023-07-20T11:19:21;32.04;38.94
65040;HTU21D;51606;45.000;38.612;2023-07-20T11:21:56;32.01;38.87
65040;HTU21D;51606;45.000;38.612;2023-07-20T11:24:23;31.93;39.06
65040;HTU21D;51606;45.000;38.612;2023-07-20T11:26:52;31.82;39.07
65040;HTU21D;51606;45.000;38.612;2023-07-20T11:29:21;31.81;38.93
65040;HTU21D;51606;45.000;38.612;2023-07-20T11:31:48;31.82;38.99
65040;HTU21D;51606;45.000;38.612;2023-07-20T11:34:17;31.90;38.93
65040;HTU21D;51606;45.000;38.612;2023-07-20T11:36:49;31.86;38.62
65040;HTU21D;51606;45.000;38.612;2023-07-20T11:39:17;31.68;38.84
65040;HTU21D;51606;45.000;38.612;2023-07-20T11:44:18;31.58;39.02
65040;HTU21D;51606;45.000;38.612;2023-07-20T11:46:45;31.67;39.04
65040;HTU21D;51606;45.000;38.612;2023-07-20T11:49:12;31.80;38.85
65040;HTU21D;51606;45.000;38.612;2023-07-20T11:51:40;31.86;38.91
65040;HTU21D;51606;45.000;38.612;2023-07-20T11:54:08;31.84;38.82
65040;HTU21D;51606;45.000;38.612;2023-07-20T11:56:35;31.60;39.01
65040;HTU21D;51606;45.000;38.612;2023-07-20T11:59:06;31.65;38.94
65040;HTU21D;51606;45.000;38.612;2023-07-20T12:01:33;31.64;39.17
65040;HTU21D;51606;45.000;38.612;2023-07-20T12:04:04;31.75;39.04
65040;HTU21D;51606;45.000;38.612;2023-07-20T12:06:30;31.85;38.84
65040;HTU21D;51606;45.000;38.612;2023-07-20T12:08:59;31.80;38.75
65040;HTU21D;51606;45.000;38.612;2023-07-20T12:11:38;31.69;38.93
65040;HTU21D;51606;45.000;38.612;2023-07-20T12:14:08;31.54;38.69
65040;HTU21D;51606;45.000;38.612;2023-07-20T12:16:36;31.30;38.85
65040;HTU21D;51606;45.000;38.612;2023-07-20T12:19:11;31.20;38.73
65040;HTU21D;51606;45.000;38.612;2023-07-20T12:21:40;31.14;39.03
65040;HTU21D;51606;45.000;38.612;2023-07-20T12:24:08;31.21;39.02
65040;HTU21D;51606;45.000;38.612;2023-07-20T12:26:36;31.21;38.54
65040;HTU21D;51606;45.000;38.612;2023-07-20T12:29:03;30.91;38.66
65040;HTU21D;51606;45.000;38.612;2023-07-20T12:31:30;30.85;38.94
65040;HTU21D;51606;45.000;38.612;2023-07-20T12:33:57;30.95;38.91
65040;HTU21D;51606;45.000;38.612;2023-07-20T12:36:24;30.99;38.96
65040;HTU21D;51606;45.000;38.612;2023-07-20T12:38:51;30.94;38.95
65040;HTU21D;51606;45.000;38.612;2023-07-20T12:41:17;30.91;39.04
65040;HTU21D;51606;45.000;38.612;2023-07-20T12:43:44;31.04;38.84
65040;HTU21D;51606;45.000;38.612;2023-07-20T12:46:14;31.08;38.72
65040;HTU21D;51606;45.000;38.612;2023-07-20T12:48:41;31.09;38.85
65040;HTU21D;51606;45.000;38.612;2023-07-20T12:51:09;31.04;38.77
65040;HTU21D;51606;45.000;38.612;2023-07-20T12:53:35;31.05;38.72
65040;HTU21D;51606;45.000;38.612;2023-07-20T12:56:03;30.99;38.82
65040;HTU21D;51606;45.000;38.612;2023-07-20T12:58:29;30.94;38.82
65040;HTU21D;51606;45.000;38.612;2023-07-20T13:00:56;30.86;38.72
65040;HTU21D;51606;45.000;38.612;2023-07-20T13:03:22;30.80;38.58
65040;HTU21D;51606;45.000;38.612;2023-07-20T13:05:49;30.74;38.69
65040;HTU21D;51606;45.000;38.612;2023-07-20T13:08:16;30.67;38.46
65040;HTU21D;51606;45.000;38.612;2023-07-20T13:10:43;30.55;38.36
65040;HTU21D;51606;45.000;38.612;2023-07-20T13:13:09;30.47;38.35
65040;HTU21D;51606;45.000;38.612;2023-07-20T13:15:44;30.52;38.26
65040;HTU21D;51606;45.000;38.612;2023-07-20T13:18:10;30.51;38.45
65040;HTU21D;51606;45.000;38.612;2023-07-20T13:20:37;30.47;38.40
65040;HTU21D;51606;45.000;38.612;2023-07-20T13:23:04;30.40;38.46
65040;HTU21D;51606;45.000;38.612;2023-07-20T13:25:31;30.35;38.44
65040;HTU21D;51606;45.000;38.612;2023-07-20T13:27:58;30.23;38.65
65040;HTU21D;51606;45.000;38.612;2023-07-20T13:30:24;30.24;38.61
65040;HTU21D;51606;45.000;38.612;2023-07-20T13:32:51;30.20;38.62
65040;HTU21D;51606;45.000;38.612;2023-07-20T13:35:17;30.11;38.53
65040;HTU21D;51606;45.000;38.612;2023-07-20T13:37:43;30.01;38.69
65040;HTU21D;51606;45.000;38.612;2023-07-20T13:40:10;29.93;38.72
65040;HTU21D;51606;45.000;38.612;2023-07-20T13:42:38;29.78;38.82
65040;HTU21D;51606;45.000;38.612;2023-07-20T13:52:59;29.62;38.86
65040;HTU21D;51606;45.000;38.612;2023-07-20T13:55:29;29.56;38.94
65040;HTU21D;51606;45.000;38.612;2023-07-20T13:57:56;29.53;39.18
65040;HTU21D;51606;45.000;38.612;2023-07-20T14:00:23;29.56;39.24
65040;HTU21D;51606;45.000;38.612;2023-07-20T14:02:53;29.60;39.23
65040;HTU21D;51606;45.000;38.612;2023-07-20T14:05:19;29.52;39.17
65040;HTU21D;51606;45.000;38.612;2023-07-20T14:07:46;29.42;39.06
65040;HTU21D;51606;45.000;38.612;2023-07-20T14:10:13;29.36;39.31
65040;HTU21D;51606;45.000;38.612;2023-07-20T14:12:39;29.33;39.35
65040;HTU21D;51606;45.000;38.612;2023-07-20T14:15:06;29.28;39.49
65040;HTU21D;51606;45.000;38.612;2023-07-20T14:17:32;29.27;39.58
65040;HTU21D;51606;45.000;38.612;2023-07-20T14:19:59;29.22;39.68
65040;HTU21D;51606;45.000;38.612;2023-07-20T14:22:25;29.21;39.77
65040;HTU21D;51606;45.000;38.612;2023-07-20T14:24:52;29.20;39.67
65040;HTU21D;51606;45.000;38.612;2023-07-20T14:27:18;29.11;39.67
65040;HTU21D;51606;45.000;38.612;2023-07-20T14:29:45;29.05;39.66
65040;HTU21D;51606;45.000;38.612;2023-07-20T14:32:11;28.98;39.75
65040;HTU21D;51606;45.000;38.612;2023-07-20T14:34:38;28.92;39.68
65040;HTU21D;51606;45.000;38.612;2023-07-20T14:37:05;28.88;39.73
65040;HTU21D;51606;45.000;38.612;2023-07-20T14:39:32;28.85;39.79
65040;HTU21D;51606;45.000;38.612;2023-07-20T14:41:59;28.80;39.85
65040;HTU21D;51606;45.000;38.612;2023-07-20T14:44:25;28.74;39.91
65040;HTU21D;51606;45.000;38.612;2023-07-20T14:46:52;28.69;40.19
65040;HTU21D;51606;45.000;38.612;2023-07-20T14:49:18;28.67;40.33
65040;HTU21D;51606;45.000;38.612;2023-07-20T14:51:45;28.63;40.46
65040;HTU21D;51606;45.000;38.612;2023-07-20T14:54:13;28.57;40.55
65040;HTU21D;51606;45.000;38.612;2023-07-20T14:56:49;28.53;40.69
65040;HTU21D;51606;45.000;38.612;2023-07-20T14:59:19;28.47;40.88
65040;HTU21D;51606;45.000;38.612;2023-07-20T15:01:46;28.39;41.12
65040;HTU21D;51606;45.000;38.612;2023-07-20T15:04:16;28.33;41.28
65040;HTU21D;51606;45.000;38.612;2023-07-20T15:06:42;28.27;41.42
65040;HTU21D;51606;45.000;38.612;2023-07-20T15:09:09;28.21;41.46
65040;HTU21D;51606;45.000;38.612;2023-07-20T15:11:36;28.13;41.59
65040;HTU21D;51606;45.000;38.612;2023-07-20T15:14:03;28.09;41.73
65040;HTU21D;51606;45.000;38.612;2023-07-20T15:16:29;28.01;41.88
65040;HTU21D;51606;45.000;38.612;2023-07-20T15:18:56;27.97;41.97
65040;HTU21D;51606;45.000;38.612;2023-07-20T15:21:22;27.89;42.09
65040;HTU21D;51606;45.000;38.612;2023-07-20T15:23:50;27.84;42.19
65040;HTU21D;51606;45.000;38.612;2023-07-20T15:26:16;27.76;42.32
65040;HTU21D;51606;45.000;38.612;2023-07-20T15:28:43;27.69;42.50
65040;HTU21D;51606;45.000;38.612;2023-07-20T15:31:09;27.58;42.79
65040;HTU21D;51606;45.000;38.612;2023-07-20T15:33:36;27.51;42.90
65040;HTU21D;51606;45.000;38.612;2023-07-20T15:36:02;27.43;43.10
65040;HTU21D;51606;45.000;38.612;2023-07-20T15:38:30;27.37;43.25
65040;HTU21D;51606;45.000;38.612;2023-07-20T15:40:57;27.29;43.39
65040;HTU21D;51606;45.000;38.612;2023-07-20T15:43:27;27.23;43.55
65040;HTU21D;51606;45.000;38.612;2023-07-20T15:46:02;27.13;43.84
65040;HTU21D;51606;45.000;38.612;2023-07-20T15:48:33;27.02;43.92
65040;HTU21D;51606;45.000;38.612;2023-07-20T15:50:59;26.92;44.13
65040;HTU21D;51606;45.000;38.612;2023-07-20T15:53:26;26.82;44.30
65040;HTU21D;51606;45.000;38.612;2023-07-20T15:55:53;26.71;44.58
65040;HTU21D;51606;45.000;38.612;2023-07-20T15:58:23;26.58;44.80
65040;HTU21D;51606;45.000;38.612;2023-07-20T16:00:54;26.46;45.09
65040;HTU21D;51606;45.000;38.612;2023-07-20T16:03:22;26.32;45.39
65040;HTU21D;51606;45.000;38.612;2023-07-20T16:05:54;26.19;45.70
65040;HTU21D;51606;45.000;38.612;2023-07-20T16:08:21;26.07;45.90
65040;HTU21D;51606;45.000;38.612;2023-07-20T16:10:47;25.98;46.07
65040;HTU21D;51606;45.000;38.612;2023-07-20T16:13:14;25.92;46.17
65040;HTU21D;51606;45.000;38.612;2023-07-20T16:15:40;25.80;46.51
65040;HTU21D;51606;45.000;38.612;2023-07-20T16:18:07;25.67;46.75
65040;HTU21D;51606;45.000;38.612;2023-07-20T16:20:33;25.56;47.02
65040;HTU21D;51606;45.000;38.612;2023-07-20T16:23:00;25.44;47.23